createdAt,value
2023-04-28T00:01:50.984Z,7.70
2023-04-28T00:04:18.258Z,7.69
2023-04-28T00:06:45.576Z,7.71
2023-04-28T00:09:13.359Z,7.70
2023-04-28T00:11:39.851Z,7.66
2023-04-28T00:14:06.648Z,7.71
2023-04-28T00:16:33.710Z,7.71
2023-04-28T00:19:00.356Z,7.72
2023-04-28T00:21:26.829Z,7.72
2023-04-28T00:23:53.474Z,7.75
2023-04-28T00:26:20.105Z,7.74
2023-04-28T00:28:46.740Z,7.68
2023-04-28T00:31:13.873Z,7.66
2023-04-28T00:33:40.992Z,7.71
2023-04-28T00:36:07.866Z,7.69
2023-04-28T00:38:34.232Z,7.68
2023-04-28T00:41:00.867Z,7.72
2023-04-28T00:43:27.420Z,7.69
2023-04-28T00:45:54.072Z,7.66
2023-04-28T00:48:20.652Z,7.72
2023-04-28T00:50:48.050Z,7.72
2023-04-28T00:53:14.614Z,7.70
2023-04-28T00:55:41.193Z,7.76
2023-04-28T00:58:08.081Z,7.78
2023-04-28T01:00:35.074Z,7.75
2023-04-28T01:03:02.665Z,7.79
2023-04-28T01:05:30.762Z,7.70
2023-04-28T01:07:57.287Z,7.73
2023-04-28T01:10:23.700Z,7.78
2023-04-28T01:12:50.501Z,7.80
2023-04-28T01:15:18.320Z,7.72
2023-04-28T01:17:45.986Z,7.65
2023-04-28T01:20:12.580Z,7.76
2023-04-28T01:22:39.026Z,7.79
2023-04-28T01:25:05.745Z,7.79
2023-04-28T01:27:32.180Z,7.83
2023-04-28T01:30:03.289Z,7.75
2023-04-28T01:32:29.835Z,7.76
2023-04-28T01:34:56.609Z,7.77
2023-04-28T01:37:23.230Z,7.75
2023-04-28T01:39:49.708Z,7.75
2023-04-28T01:42:16.224Z,7.64
2023-04-28T01:44:42.659Z,7.62
2023-04-28T01:47:09.474Z,7.53
2023-04-28T01:49:36.197Z,7.63
2023-04-28T01:52:02.732Z,7.70
2023-04-28T01:54:29.363Z,7.69
2023-04-28T01:56:55.887Z,7.66
2023-04-28T01:59:22.485Z,7.57
2023-04-28T02:01:49.083Z,7.47
2023-04-28T02:04:15.787Z,7.49
2023-04-28T02:06:42.703Z,7.50
2023-04-28T02:09:13.810Z,7.49
2023-04-28T02:11:40.359Z,7.57
2023-04-28T02:14:07.410Z,7.55
2023-04-28T02:16:34.214Z,7.55
2023-04-28T02:19:00.794Z,7.45
2023-04-28T02:21:28.126Z,7.48
2023-04-28T02:23:54.737Z,7.36
2023-04-28T02:26:21.214Z,7.30
2023-04-28T02:28:49.072Z,7.41
2023-04-28T02:31:16.125Z,7.44
2023-04-28T02:33:42.918Z,7.36
2023-04-28T02:36:20.844Z,7.33
2023-04-28T02:38:47.708Z,7.29
2023-04-28T02:41:15.485Z,7.27
2023-04-28T02:43:42.317Z,7.24
2023-04-28T02:46:08.803Z,7.24
2023-04-28T02:48:36.746Z,7.42
2023-04-28T02:51:03.783Z,7.48
2023-04-28T02:53:30.244Z,7.53
2023-04-28T02:55:57.064Z,7.36
2023-04-28T02:58:23.550Z,7.48
2023-04-28T03:00:50.279Z,7.48
2023-04-28T03:03:16.972Z,7.42
2023-04-28T03:05:43.560Z,7.37
2023-04-28T03:08:10.017Z,7.21
2023-04-28T03:10:36.704Z,7.43
2023-04-28T03:13:03.369Z,7.57
2023-04-28T03:15:29.790Z,7.61
2023-04-28T03:17:56.447Z,7.33
2023-04-28T03:20:23.014Z,7.30
2023-04-28T03:22:49.461Z,7.34
2023-04-28T03:25:15.954Z,7.32
2023-04-28T03:27:43.704Z,7.28
2023-04-28T03:30:10.530Z,7.22
2023-04-28T03:32:37.130Z,7.23
2023-04-28T03:35:03.704Z,7.25
2023-04-28T03:37:30.109Z,7.22
2023-04-28T03:39:57.128Z,7.09
2023-04-28T03:42:23.595Z,7.15
2023-04-28T03:44:50.059Z,7.09
2023-04-28T03:47:16.652Z,7.00
2023-04-28T03:49:43.100Z,7.05
2023-04-28T03:52:09.722Z,7.08
2023-04-28T03:54:36.260Z,7.11
2023-04-28T03:57:02.811Z,6.92
2023-04-28T03:59:29.178Z,6.88
2023-04-28T04:01:55.641Z,6.94
2023-04-28T04:04:22.720Z,6.88
2023-04-28T04:06:50.639Z,6.70
2023-04-28T04:09:17.331Z,6.76
2023-04-28T04:11:43.796Z,6.89
2023-04-28T04:14:10.653Z,6.92
2023-04-28T04:16:37.549Z,6.88
2023-04-28T04:19:03.980Z,6.79
2023-04-28T04:21:32.123Z,6.72
2023-04-28T04:23:58.745Z,6.85
2023-04-28T04:26:25.379Z,6.82
2023-04-28T04:28:51.940Z,6.83
2023-04-28T04:31:19.850Z,6.87
2023-04-28T04:33:46.412Z,6.89
2023-04-28T04:36:13.237Z,6.68
2023-04-28T04:38:40.337Z,6.90
2023-04-28T04:41:07.092Z,6.83
2023-04-28T04:43:33.516Z,6.88
2023-04-28T04:46:00.557Z,6.76
2023-04-28T04:48:27.645Z,6.89
2023-04-28T04:50:54.263Z,6.72
2023-04-28T04:53:20.911Z,6.83
2023-04-28T04:55:47.713Z,6.83
2023-04-28T04:58:14.277Z,6.82
2023-04-28T05:00:40.806Z,6.67
2023-04-28T05:03:08.014Z,6.98
2023-04-28T05:05:34.772Z,7.18
2023-04-28T05:08:02.576Z,6.85
2023-04-28T05:10:29.475Z,6.76
2023-04-28T05:12:56.157Z,6.68
2023-04-28T05:15:22.886Z,6.66
2023-04-28T05:17:49.722Z,6.71
2023-04-28T05:20:16.583Z,6.85
2023-04-28T05:22:43.233Z,6.91
2023-04-28T05:25:10.000Z,7.05
2023-04-28T05:27:42.045Z,7.01
2023-04-28T05:30:09.494Z,7.17
2023-04-28T05:32:36.734Z,6.72
2023-04-28T05:35:03.381Z,6.75
2023-04-28T05:37:30.213Z,6.95
2023-04-28T05:39:56.810Z,6.88
2023-04-28T05:42:23.224Z,6.71
2023-04-28T05:44:49.688Z,6.93
2023-04-28T05:47:16.190Z,6.75
2023-04-28T05:49:42.581Z,6.86
2023-04-28T05:52:09.096Z,6.95
2023-04-28T05:54:40.464Z,6.77
2023-04-28T05:57:07.383Z,6.86
2023-04-28T05:59:34.076Z,6.90
2023-04-28T06:02:00.626Z,7.12
2023-04-28T06:04:27.665Z,7.05
2023-04-28T06:06:54.435Z,6.60
2023-04-28T06:09:21.146Z,6.79
2023-04-28T06:11:47.738Z,6.93
2023-04-28T06:14:14.464Z,7.14
2023-04-28T06:16:41.022Z,6.94
2023-04-28T06:19:16.673Z,6.82
2023-04-28T06:21:53.852Z,6.90
2023-04-28T06:24:21.496Z,7.17
2023-04-28T06:26:48.011Z,7.18
2023-04-28T06:29:14.663Z,7.00
2023-04-28T06:31:43.378Z,6.79
2023-04-28T06:34:14.863Z,6.95
2023-04-28T06:36:47.807Z,7.13
2023-04-28T06:39:14.389Z,7.20
2023-04-28T06:41:41.802Z,7.31
2023-04-28T06:44:08.316Z,7.46
2023-04-28T06:46:34.950Z,7.34
2023-04-28T06:49:01.634Z,7.28
2023-04-28T06:51:29.027Z,7.42
2023-04-28T06:53:55.569Z,7.43
2023-04-28T06:56:22.337Z,7.49
2023-04-28T06:58:49.120Z,7.63
2023-04-28T07:01:18.173Z,7.67
2023-04-28T07:03:44.941Z,7.64
2023-04-28T07:06:11.670Z,7.42
2023-04-28T07:08:38.208Z,7.66
2023-04-28T07:11:04.939Z,7.93
2023-04-28T07:13:32.360Z,7.69
2023-04-28T07:15:59.928Z,8.06
2023-04-28T07:18:26.486Z,7.93
2023-04-28T07:20:53.166Z,7.78
2023-04-28T07:23:19.639Z,7.84
2023-04-28T07:25:46.167Z,7.88
2023-04-28T07:28:13.217Z,7.90
2023-04-28T07:30:39.754Z,7.85
2023-04-28T07:33:06.663Z,7.66
2023-04-28T07:35:33.381Z,7.72
2023-04-28T07:37:59.986Z,7.68
2023-04-28T07:40:26.519Z,7.74
2023-04-28T07:43:01.297Z,7.57
2023-04-28T07:45:27.963Z,7.51
2023-04-28T07:47:54.562Z,7.44
2023-04-28T07:50:21.321Z,7.51
2023-04-28T07:52:47.835Z,7.51
2023-04-28T07:55:14.633Z,7.29
2023-04-28T07:57:42.448Z,7.37
2023-04-28T08:00:10.075Z,7.49
2023-04-28T08:02:36.846Z,7.81
2023-04-28T08:05:03.772Z,7.89
2023-04-28T08:07:30.622Z,7.49
2023-04-28T08:10:07.533Z,7.57
2023-04-28T08:12:34.365Z,7.40
2023-04-28T08:15:01.061Z,7.73
2023-04-28T08:17:27.827Z,8.01
2023-04-28T08:19:54.698Z,7.97
2023-04-28T08:22:21.397Z,7.91
2023-04-28T08:24:47.997Z,8.12
2023-04-28T08:27:14.540Z,7.98
2023-04-28T08:29:41.130Z,8.04
2023-04-28T08:32:07.791Z,8.05
2023-04-28T08:34:35.282Z,8.13
2023-04-28T08:37:05.104Z,8.21
2023-04-28T08:39:34.249Z,8.21
2023-04-28T08:42:04.834Z,8.53
2023-04-28T08:44:41.273Z,8.73
2023-04-28T08:47:14.716Z,8.39
2023-04-28T08:49:41.657Z,8.49
2023-04-28T08:52:13.858Z,8.42
2023-04-28T08:54:41.814Z,8.47
2023-04-28T08:57:11.685Z,8.52
2023-04-28T08:59:41.710Z,8.52
2023-04-28T09:02:09.194Z,8.79
2023-04-28T09:04:38.279Z,8.90
2023-04-28T09:07:15.235Z,9.00
2023-04-28T09:09:42.250Z,8.80
2023-04-28T09:12:09.289Z,8.90
2023-04-28T09:14:36.652Z,8.90
2023-04-28T09:17:03.560Z,8.77
2023-04-28T09:19:34.464Z,8.67
2023-04-28T09:22:05.568Z,8.91
2023-04-28T09:24:47.081Z,9.16
2023-04-28T09:27:15.636Z,9.15
2023-04-28T09:29:52.577Z,9.14
2023-04-28T09:32:20.285Z,8.97
2023-04-28T09:34:47.821Z,9.16
2023-04-28T09:37:15.543Z,9.17
2023-04-28T09:39:42.113Z,9.00
2023-04-28T09:42:08.552Z,9.01
2023-04-28T09:44:34.926Z,9.19
2023-04-28T09:47:19.773Z,8.96
2023-04-28T09:49:56.085Z,9.16
2023-04-28T09:52:26.240Z,9.24
2023-04-28T09:54:54.027Z,9.30
2023-04-28T09:57:22.238Z,9.15
2023-04-28T09:59:49.820Z,9.20
2023-04-28T10:02:40.838Z,9.28
2023-04-28T10:05:05.458Z,8.98
2023-04-28T10:07:35.011Z,9.07
2023-04-28T10:10:02.049Z,9.03
2023-04-28T10:12:28.584Z,9.25
2023-04-28T10:14:55.157Z,9.18
2023-04-28T10:17:22.205Z,9.28
2023-04-28T10:19:50.432Z,9.40
2023-04-28T10:22:30.889Z,9.50
2023-04-28T10:24:57.299Z,9.57
2023-04-28T10:27:29.210Z,9.61
2023-04-28T10:30:22.843Z,9.27
2023-04-28T10:33:11.534Z,9.45
2023-04-28T10:35:43.145Z,9.67
2023-04-28T10:38:12.611Z,9.80
2023-04-28T10:40:39.332Z,9.76
2023-04-28T10:43:06.449Z,10.18
2023-04-28T10:45:55.286Z,10.02
2023-04-28T10:48:42.805Z,10.14
2023-04-28T10:51:15.556Z,10.11
2023-04-28T10:53:47.834Z,9.75
2023-04-28T10:56:18.662Z,9.88
2023-04-28T10:58:49.418Z,10.57
2023-04-28T11:01:18.950Z,10.35
2023-04-28T11:03:52.069Z,10.67
2023-04-28T11:06:23.580Z,10.34
2023-04-28T11:08:50.021Z,10.62
2023-04-28T11:11:20.357Z,10.91
2023-04-28T11:13:47.614Z,10.69
2023-04-28T11:16:14.679Z,10.44
2023-04-28T11:18:59.019Z,10.76
2023-04-28T11:21:28.171Z,10.62
2023-04-28T11:23:55.143Z,10.75
2023-04-28T11:26:23.680Z,11.18
2023-04-28T11:28:51.336Z,11.27
2023-04-28T11:31:23.605Z,11.47
2023-04-28T11:33:53.571Z,11.65
2023-04-28T11:36:28.053Z,11.13
2023-04-28T11:38:56.360Z,11.17
2023-04-28T11:41:23.175Z,11.42
2023-04-28T11:43:49.656Z,11.06
2023-04-28T11:46:20.055Z,11.39
2023-04-28T11:48:46.791Z,11.65
2023-04-28T11:51:36.631Z,11.51
2023-04-28T11:54:03.727Z,11.53
2023-04-28T11:56:30.253Z,12.43
2023-04-28T11:59:05.859Z,12.52
2023-04-28T12:01:33.144Z,12.76
2023-04-28T12:04:00.041Z,12.47
2023-04-28T12:06:26.720Z,12.91
2023-04-28T12:08:53.212Z,13.24
2023-04-28T12:11:22.812Z,13.41
2023-04-28T12:14:10.516Z,13.67
2023-04-28T12:16:39.264Z,12.81
2023-04-28T12:19:09.995Z,13.21
2023-04-28T12:21:38.506Z,13.29
2023-04-28T12:24:21.325Z,12.67
2023-04-28T12:26:48.617Z,13.03
2023-04-28T12:29:34.550Z,13.02
2023-04-28T12:32:01.081Z,13.27
2023-04-28T12:34:29.518Z,12.92
2023-04-28T12:36:56.279Z,12.82
2023-04-28T12:39:23.150Z,12.92
2023-04-28T12:41:49.644Z,12.87
2023-04-28T12:44:17.522Z,12.94
2023-04-28T12:46:44.088Z,13.34
2023-04-28T12:49:10.819Z,14.07
2023-04-28T12:51:39.770Z,14.18
2023-04-28T12:54:06.926Z,14.40
2023-04-28T12:56:33.927Z,14.50
2023-04-28T12:59:04.650Z,13.60
2023-04-28T13:01:31.217Z,14.69
2023-04-28T13:03:57.800Z,14.39
2023-04-28T13:06:24.301Z,14.77
2023-04-28T13:08:50.751Z,14.42
2023-04-28T13:11:22.955Z,14.54
2023-04-28T13:13:49.706Z,14.15
2023-04-28T13:16:16.167Z,14.40
2023-04-28T13:18:42.624Z,14.16
2023-04-28T13:21:09.121Z,14.26
2023-04-28T13:23:35.575Z,14.23
2023-04-28T13:26:02.182Z,14.32
2023-04-28T13:28:29.363Z,14.12
2023-04-28T13:30:56.026Z,14.11
2023-04-28T13:33:22.443Z,14.11
2023-04-28T13:35:48.965Z,13.83
2023-04-28T13:38:15.811Z,13.88
2023-04-28T13:40:43.129Z,13.50
2023-04-28T13:43:09.590Z,13.77
2023-04-28T13:45:36.273Z,13.92
2023-04-28T13:48:04.077Z,14.04
2023-04-28T13:50:30.511Z,13.74
2023-04-28T13:52:57.028Z,13.82
2023-04-28T13:55:27.765Z,13.73
2023-04-28T13:57:54.760Z,13.63
2023-04-28T14:00:21.377Z,13.96
2023-04-28T14:02:49.641Z,13.59
2023-04-28T14:05:19.220Z,13.73
2023-04-28T14:07:46.044Z,13.75
2023-04-28T14:10:12.687Z,13.92
2023-04-28T14:12:39.442Z,14.01
2023-04-28T14:15:06.985Z,14.35
2023-04-28T14:17:34.744Z,14.10
2023-04-28T14:20:01.983Z,13.64
2023-04-28T14:22:28.845Z,13.75
2023-04-28T14:24:55.489Z,13.68
2023-04-28T14:27:22.132Z,13.66
2023-04-28T14:29:49.186Z,13.44
2023-04-28T14:32:16.848Z,13.60
2023-04-28T14:34:43.520Z,13.69
2023-04-28T14:37:10.662Z,13.69
2023-04-28T14:39:37.588Z,13.98
2023-04-28T14:42:04.138Z,14.32
2023-04-28T14:44:30.562Z,13.92
2023-04-28T14:46:57.028Z,13.86
2023-04-28T14:49:23.908Z,13.92
2023-04-28T14:51:50.521Z,14.06
2023-04-28T14:54:17.270Z,14.01
2023-04-28T14:56:44.664Z,13.95
2023-04-28T14:59:11.800Z,14.18
2023-04-28T15:01:38.427Z,14.30
2023-04-28T15:04:05.286Z,14.16
2023-04-28T15:06:33.016Z,14.20
2023-04-28T15:08:59.486Z,14.05
2023-04-28T15:11:25.932Z,13.87
2023-04-28T15:13:52.407Z,14.07
2023-04-28T15:16:19.084Z,14.05
2023-04-28T15:18:46.145Z,13.90
2023-04-28T15:21:12.671Z,14.24
2023-04-28T15:23:39.024Z,14.01
2023-04-28T15:26:05.459Z,14.15
2023-04-28T15:28:31.975Z,13.96
2023-04-28T15:30:58.364Z,14.07
2023-04-28T15:33:24.788Z,13.78
2023-04-28T15:35:51.344Z,13.89
2023-04-28T15:38:21.413Z,14.10
2023-04-28T15:40:47.880Z,14.18
2023-04-28T15:43:14.339Z,13.99
2023-04-28T15:45:40.888Z,13.98
2023-04-28T15:48:07.766Z,13.97
2023-04-28T15:50:35.972Z,14.00
2023-04-28T15:53:02.482Z,13.84
2023-04-28T15:55:28.947Z,13.81
2023-04-28T15:57:56.066Z,13.98
2023-04-28T16:00:22.901Z,14.16
2023-04-28T16:02:49.974Z,14.18
2023-04-28T16:05:16.684Z,14.11
2023-04-28T16:07:44.417Z,13.99
2023-04-28T16:10:12.295Z,14.13
2023-04-28T16:12:39.390Z,14.36
2023-04-28T16:15:06.364Z,14.22
2023-04-28T16:17:35.839Z,14.18
2023-04-28T16:20:04.695Z,14.19
2023-04-28T16:22:31.126Z,14.13
2023-04-28T16:24:57.834Z,14.25
2023-04-28T16:27:24.309Z,14.14
2023-04-28T16:29:51.058Z,14.03
2023-04-28T16:32:17.671Z,14.04
2023-04-28T16:34:44.344Z,13.98
2023-04-28T16:37:11.791Z,14.06
2023-04-28T16:39:38.484Z,14.01
2023-04-28T16:42:05.504Z,14.32
2023-04-28T16:44:32.985Z,14.27
2023-04-28T16:46:59.824Z,14.59
2023-04-28T16:49:26.368Z,14.57
2023-04-28T16:52:00.346Z,14.75
2023-04-28T16:54:28.268Z,14.94
2023-04-28T16:56:55.218Z,14.89
2023-04-28T16:59:21.724Z,14.98
2023-04-28T17:01:48.348Z,14.70
2023-04-28T17:04:15.087Z,14.51
2023-04-28T17:06:41.608Z,14.48
2023-04-28T17:09:08.270Z,14.34
2023-04-28T17:11:37.677Z,14.24
2023-04-28T17:14:04.805Z,14.21
2023-04-28T17:16:32.304Z,14.21
2023-04-28T17:18:59.319Z,14.24
2023-04-28T17:21:28.584Z,14.27
2023-04-28T17:23:58.531Z,14.27
2023-04-28T17:26:25.420Z,14.26
2023-04-28T17:28:52.337Z,14.32
2023-04-28T17:31:19.446Z,14.31
2023-04-28T17:33:46.540Z,14.28
2023-04-28T17:36:13.033Z,14.28
2023-04-28T17:38:39.693Z,14.27
2023-04-28T17:41:06.287Z,14.24
2023-04-28T17:43:33.859Z,14.18
2023-04-28T17:46:00.553Z,14.19
2023-04-28T17:48:27.019Z,14.12
2023-04-28T17:50:53.820Z,14.09
2023-04-28T17:53:20.214Z,14.00
2023-04-28T17:55:46.668Z,14.01
2023-04-28T17:58:13.158Z,13.94
2023-04-28T18:00:39.764Z,13.96
2023-04-28T18:03:06.637Z,13.89
2023-04-28T18:05:35.397Z,13.88
2023-04-28T18:08:05.524Z,13.81
2023-04-28T18:10:32.301Z,13.80
2023-04-28T18:12:59.267Z,13.79
2023-04-28T18:15:26.153Z,13.77
2023-04-28T18:17:53.828Z,13.71
2023-04-28T18:20:20.346Z,13.57
2023-04-28T18:22:47.210Z,13.65
2023-04-28T18:25:16.754Z,13.61
2023-04-28T18:27:43.359Z,13.57
2023-04-28T18:30:09.996Z,13.51
2023-04-28T18:32:36.490Z,13.47
2023-04-28T18:35:03.074Z,13.43
2023-04-28T18:37:30.063Z,13.43
2023-04-28T18:39:57.117Z,13.37
2023-04-28T18:42:23.802Z,13.32
2023-04-28T18:44:59.139Z,13.31
2023-04-28T18:47:25.883Z,13.26
2023-04-28T18:49:52.621Z,13.32
2023-04-28T18:52:19.053Z,13.40
2023-04-28T18:54:45.597Z,13.36
2023-04-28T18:57:12.752Z,13.39
2023-04-28T18:59:39.430Z,13.38
2023-04-28T19:02:05.861Z,13.41
2023-04-28T19:04:32.321Z,13.40
2023-04-28T19:06:58.841Z,13.33
2023-04-28T19:09:25.409Z,13.33
2023-04-28T19:11:51.913Z,13.37
2023-04-28T19:14:18.349Z,13.43
2023-04-28T19:16:44.805Z,13.47
2023-04-28T19:19:11.251Z,13.40
2023-04-28T19:21:41.608Z,13.42
2023-04-28T19:24:08.014Z,13.29
2023-04-28T19:26:35.195Z,13.28
2023-04-28T19:29:02.188Z,13.29
2023-04-28T19:31:28.695Z,13.28
2023-04-28T19:33:55.182Z,13.22
2023-04-28T19:36:22.468Z,13.24
2023-04-28T19:38:48.970Z,13.29
2023-04-28T19:41:15.373Z,13.25
2023-04-28T19:43:41.848Z,13.37
2023-04-28T19:46:08.988Z,13.40
2023-04-28T19:48:35.395Z,13.30
2023-04-28T19:51:02.121Z,13.19
2023-04-28T19:53:28.900Z,13.17
2023-04-28T19:55:57.221Z,12.93
2023-04-28T19:58:23.979Z,12.98
2023-04-28T20:00:50.851Z,12.97
2023-04-28T20:03:17.599Z,12.81
2023-04-28T20:05:44.537Z,12.86
2023-04-28T20:08:12.566Z,12.85
2023-04-28T20:10:39.013Z,12.88
2023-04-28T20:13:07.267Z,12.87
2023-04-28T20:15:34.022Z,12.78
2023-04-28T20:18:01.803Z,12.72
2023-04-28T20:20:28.795Z,12.75
2023-04-28T20:22:55.281Z,12.82
2023-04-28T20:25:22.812Z,12.74
2023-04-28T20:27:49.570Z,12.78
2023-04-28T20:30:15.981Z,12.75
2023-04-28T20:32:42.476Z,12.74
2023-04-28T20:35:09.161Z,12.87
2023-04-28T20:37:35.573Z,12.79
2023-04-28T20:40:02.007Z,12.83
2023-04-28T20:42:28.913Z,12.83
2023-04-28T20:44:55.326Z,12.67
2023-04-28T20:47:21.778Z,12.74
2023-04-28T20:49:48.359Z,12.86
2023-04-28T20:52:14.797Z,12.89
2023-04-28T20:54:46.416Z,13.03
2023-04-28T20:57:12.819Z,13.03
2023-04-28T20:59:39.269Z,13.01
2023-04-28T21:02:05.853Z,12.95
2023-04-28T21:04:32.928Z,12.97
2023-04-28T21:06:59.380Z,12.95
2023-04-28T21:09:27.141Z,12.94
2023-04-28T21:11:54.968Z,13.02
2023-04-28T21:14:22.206Z,12.95
2023-04-28T21:16:48.733Z,13.01
2023-04-28T21:19:15.174Z,13.02
2023-04-28T21:21:41.956Z,13.08
2023-04-28T21:24:09.309Z,13.14
2023-04-28T21:26:36.619Z,13.20
2023-04-28T21:29:03.236Z,13.20
2023-04-28T21:31:30.746Z,13.29
2023-04-28T21:33:57.606Z,13.17
2023-04-28T21:36:25.846Z,13.17
2023-04-28T21:38:52.288Z,13.11
2023-04-28T21:41:18.713Z,13.14
2023-04-28T21:43:45.068Z,13.18
2023-04-28T21:46:12.499Z,13.21
2023-04-28T21:48:39.094Z,13.15
2023-04-28T21:51:05.583Z,13.13
2023-04-28T21:53:32.035Z,13.21
2023-04-28T21:55:58.674Z,13.14
2023-04-28T21:58:25.137Z,13.11
2023-04-28T22:00:51.900Z,13.03
2023-04-28T22:03:19.125Z,13.00
2023-04-28T22:05:45.649Z,12.91
2023-04-28T22:08:12.898Z,12.85
2023-04-28T22:10:39.457Z,12.85
2023-04-28T22:13:06.635Z,12.88
2023-04-28T22:15:34.928Z,12.76
2023-04-28T22:18:01.598Z,12.91
2023-04-28T22:20:28.098Z,12.98
2023-04-28T22:22:54.562Z,12.93
2023-04-28T22:25:21.318Z,12.91
2023-04-28T22:27:47.815Z,12.89
2023-04-28T22:30:14.367Z,12.95
2023-04-28T22:32:44.618Z,12.91
2023-04-28T22:35:14.304Z,12.91
2023-04-28T22:37:40.739Z,12.90
2023-04-28T22:40:08.520Z,12.81
2023-04-28T22:42:41.601Z,12.83
2023-04-28T22:45:10.031Z,12.83
2023-04-28T22:47:37.479Z,12.79
2023-04-28T22:50:05.940Z,12.81
2023-04-28T22:52:33.218Z,12.78
2023-04-28T22:54:59.719Z,12.76
2023-04-28T22:57:26.291Z,12.77
2023-04-28T22:59:52.948Z,12.77
2023-04-28T23:02:20.072Z,12.83
2023-04-28T23:04:46.656Z,12.87
2023-04-28T23:07:13.195Z,12.76
2023-04-28T23:09:40.386Z,12.66
2023-04-28T23:12:07.736Z,12.65
2023-04-28T23:14:34.207Z,12.51
2023-04-28T23:17:00.908Z,12.45
2023-04-28T23:19:27.292Z,12.37
2023-04-28T23:21:54.970Z,12.09
2023-04-28T23:24:21.405Z,12.25
2023-04-28T23:26:47.773Z,12.15
2023-04-28T23:29:14.257Z,12.11
2023-04-28T23:31:40.691Z,12.17
2023-04-28T23:34:07.107Z,12.15
2023-04-28T23:36:33.453Z,12.22
2023-04-28T23:39:00.026Z,12.17
2023-04-28T23:41:28.085Z,12.19
2023-04-28T23:43:54.692Z,12.13
2023-04-28T23:46:21.462Z,12.19
2023-04-28T23:48:49.798Z,12.30
2023-04-28T23:51:16.463Z,12.25
2023-04-28T23:53:43.125Z,12.25
2023-04-28T23:56:09.573Z,12.26
2023-04-28T23:58:35.946Z,12.24
